sensor_id;sensor_type;location;lat;lon;timestamp;P1;P2;P0
56360;PMS7003;42611;51.132;13.588;2023-11-22T00:00:02;47.0;39.0;
56360;PMS7003;42611;51.132;13.588;2023-11-22T00:05:01;45.9;37.4;
56360;PMS7003;42611;51.132;13.588;2023-11-22T00:10:01;42.6;35.5;
56360;PMS7003;42611;51.132;13.588;2023-11-22T00:15:03;41.0;34.5;
56360;PMS7003;42611;51.132;13.588;2023-11-22T00:20:01;38.9;33.8;
56360;PMS7003;42611;51.132;13.588;2023-11-22T00:25:01;39.0;33.2;
56360;PMS7003;42611;51.132;13.588;2023-11-22T00:30:01;38.8;33.6;
56360;PMS7003;42611;51.132;13.588;2023-11-22T00:35:01;39.9;34.7;
56360;PMS7003;42611;51.132;13.588;2023-11-22T00:40:02;39.4;34.3;
56360;PMS7003;42611;51.132;13.588;2023-11-22T00:45:01;39.8;34.2;
56360;PMS7003;42611;51.132;13.588;2023-11-22T00:50:01;40.4;34.9;
56360;PMS7003;42611;51.132;13.588;2023-11-22T00:55:01;41.8;35.2;
56360;PMS7003;42611;51.132;13.588;2023-11-22T01:00:02;41.3;34.7;
56360;PMS7003;42611;51.132;13.588;2023-11-22T01:10:01;42.3;35.6;
56360;PMS7003;42611;51.132;13.588;2023-11-22T01:15:02;42.3;35.0;
56360;PMS7003;42611;51.132;13.588;2023-11-22T01:20:02;38.9;33.6;
56360;PMS7003;42611;51.132;13.588;2023-11-22T01:25:01;39.3;34.2;
56360;PMS7003;42611;51.132;13.588;2023-11-22T01:30:02;41.3;34.7;
56360;PMS7003;42611;51.132;13.588;2023-11-22T01:35:01;36.7;30.6;
56360;PMS7003;42611;51.132;13.588;2023-11-22T01:40:01;35.7;30.8;
56360;PMS7003;42611;51.132;13.588;2023-11-22T01:45:02;37.6;32.3;
56360;PMS7003;42611;51.132;13.588;2023-11-22T01:50:02;37.5;32.6;
56360;PMS7003;42611;51.132;13.588;2023-11-22T01:55:01;34.9;32.0;
56360;PMS7003;42611;51.132;13.588;2023-11-22T02:00:03;38.3;35.4;
56360;PMS7003;42611;51.132;13.588;2023-11-22T02:05:01;36.1;33.2;
56360;PMS7003;42611;51.132;13.588;2023-11-22T02:10:01;34.2;32.4;
56360;PMS7003;42611;51.132;13.588;2023-11-22T02:15:02;35.6;32.9;
56360;PMS7003;42611;51.132;13.588;2023-11-22T02:20:02;35.9;33.2;
56360;PMS7003;42611;51.132;13.588;2023-11-22T02:25:01;36.3;33.1;
56360;PMS7003;42611;51.132;13.588;2023-11-22T02:30:02;38.1;34.4;
56360;PMS7003;42611;51.132;13.588;2023-11-22T02:35:01;40.0;34.4;
56360;PMS7003;42611;51.132;13.588;2023-11-22T02:40:05;38.4;33.3;
56360;PMS7003;42611;51.132;13.588;2023-11-22T02:45:01;38.6;32.6;
56360;PMS7003;42611;51.132;13.588;2023-11-22T02:50:02;37.3;31.5;
56360;PMS7003;42611;51.132;13.588;2023-11-22T02:55:02;36.9;31.4;
56360;PMS7003;42611;51.132;13.588;2023-11-22T03:00:01;35.2;31.6;
56360;PMS7003;42611;51.132;13.588;2023-11-22T03:05:01;34.2;30.4;
56360;PMS7003;42611;51.132;13.588;2023-11-22T03:10:02;34.7;30.7;
56360;PMS7003;42611;51.132;13.588;2023-11-22T03:15:02;35.8;31.8;
56360;PMS7003;42611;51.132;13.588;2023-11-22T03:20:01;35.4;30.4;
56360;PMS7003;42611;51.132;13.588;2023-11-22T03:25:02;36.0;30.2;
56360;PMS7003;42611;51.132;13.588;2023-11-22T03:30:02;36.4;31.1;
56360;PMS7003;42611;51.132;13.588;2023-11-22T03:35:01;35.3;30.4;
56360;PMS7003;42611;51.132;13.588;2023-11-22T03:40:01;34.1;30.0;
56360;PMS7003;42611;51.132;13.588;2023-11-22T03:45:02;34.8;32.0;
56360;PMS7003;42611;51.132;13.588;2023-11-22T03:50:01;33.0;30.8;
56360;PMS7003;42611;51.132;13.588;2023-11-22T03:55:01;34.7;31.8;
56360;PMS7003;42611;51.132;13.588;2023-11-22T04:00:02;34.2;31.6;
56360;PMS7003;42611;51.132;13.588;2023-11-22T04:05:06;36.6;32.3;
56360;PMS7003;42611;51.132;13.588;2023-11-22T04:10:01;36.5;31.4;
56360;PMS7003;42611;51.132;13.588;2023-11-22T04:15:05;36.9;30.4;
56360;PMS7003;42611;51.132;13.588;2023-11-22T04:20:01;37.7;30.9;
56360;PMS7003;42611;51.132;13.588;2023-11-22T04:25:01;36.8;30.1;
56360;PMS7003;42611;51.132;13.588;2023-11-22T04:30:01;36.6;30.3;
56360;PMS7003;42611;51.132;13.588;2023-11-22T04:35:02;38.1;31.8;
56360;PMS7003;42611;51.132;13.588;2023-11-22T04:40:01;40.6;34.8;
56360;PMS7003;42611;51.132;13.588;2023-11-22T04:45:03;37.4;32.5;
56360;PMS7003;42611;51.132;13.588;2023-11-22T04:50:01;38.9;34.1;
56360;PMS7003;42611;51.132;13.588;2023-11-22T04:55:01;37.9;33.9;
56360;PMS7003;42611;51.132;13.588;2023-11-22T05:00:02;36.6;33.3;
56360;PMS7003;42611;51.132;13.588;2023-11-22T05:05:02;37.2;32.1;
56360;PMS7003;42611;51.132;13.588;2023-11-22T05:10:03;37.0;30.7;
56360;PMS7003;42611;51.132;13.588;2023-11-22T05:15:03;39.0;31.4;
56360;PMS7003;42611;51.132;13.588;2023-11-22T05:20:01;39.9;32.2;
56360;PMS7003;42611;51.132;13.588;2023-11-22T05:25:01;40.2;32.4;
56360;PMS7003;42611;51.132;13.588;2023-11-22T05:30:03;37.8;31.9;
56360;PMS7003;42611;51.132;13.588;2023-11-22T05:35:01;41.1;35.5;
56360;PMS7003;42611;51.132;13.588;2023-11-22T05:40:01;42.4;36.6;
56360;PMS7003;42611;51.132;13.588;2023-11-22T05:45:02;43.2;36.4;
56360;PMS7003;42611;51.132;13.588;2023-11-22T05:50:01;46.3;38.2;
56360;PMS7003;42611;51.132;13.588;2023-11-22T05:55:01;48.9;40.6;
56360;PMS7003;42611;51.132;13.588;2023-11-22T06:00:02;50.4;41.6;
56360;PMS7003;42611;51.132;13.588;2023-11-22T06:05:01;52.0;42.3;
56360;PMS7003;42611;51.132;13.588;2023-11-22T06:10:01;55.6;44.8;
56360;PMS7003;42611;51.132;13.588;2023-11-22T06:15:02;53.7;43.2;
56360;PMS7003;42611;51.132;13.588;2023-11-22T06:20:01;52.0;41.6;
56360;PMS7003;42611;51.132;13.588;2023-11-22T06:25:01;54.5;42.8;
56360;PMS7003;42611;51.132;13.588;2023-11-22T06:30:01;53.8;42.3;
56360;PMS7003;42611;51.132;13.588;2023-11-22T06:35:01;52.8;41.7;
56360;PMS7003;42611;51.132;13.588;2023-11-22T06:40:01;54.0;42.6;
56360;PMS7003;42611;51.132;13.588;2023-11-22T06:45:02;56.6;44.7;
56360;PMS7003;42611;51.132;13.588;2023-11-22T06:50:01;54.5;43.2;
56360;PMS7003;42611;51.132;13.588;2023-11-22T06:55:01;51.8;41.9;
56360;PMS7003;42611;51.132;13.588;2023-11-22T07:00:03;47.7;39.7;
56360;PMS7003;42611;51.132;13.588;2023-11-22T07:05:03;46.5;38.3;
56360;PMS7003;42611;51.132;13.588;2023-11-22T07:10:01;44.3;37.3;
56360;PMS7003;42611;51.132;13.588;2023-11-22T07:15:02;42.2;36.2;
56360;PMS7003;42611;51.132;13.588;2023-11-22T07:20:01;42.6;36.0;
56360;PMS7003;42611;51.132;13.588;2023-11-22T07:25:01;41.3;34.6;
56360;PMS7003;42611;51.132;13.588;2023-11-22T07:30:02;40.1;34.0;
56360;PMS7003;42611;51.132;13.588;2023-11-22T07:35:01;61.4;53.0;
56360;PMS7003;42611;51.132;13.588;2023-11-22T07:40:01;65.4;56.2;
56360;PMS7003;42611;51.132;13.588;2023-11-22T07:45:02;68.0;58.0;
56360;PMS7003;42611;51.132;13.588;2023-11-22T07:50:01;73.7;62.5;
56360;PMS7003;42611;51.132;13.588;2023-11-22T07:55:01;75.5;64.4;
56360;PMS7003;42611;51.132;13.588;2023-11-22T08:00:02;57.1;47.2;
56360;PMS7003;42611;51.132;13.588;2023-11-22T08:05:01;53.3;44.7;
56360;PMS7003;42611;51.132;13.588;2023-11-22T08:10:01;51.1;42.4;
56360;PMS7003;42611;51.132;13.588;2023-11-22T08:15:02;49.6;40.7;
56360;PMS7003;42611;51.132;13.588;2023-11-22T08:20:01;51.3;40.9;
56360;PMS7003;42611;51.132;13.588;2023-11-22T08:25:02;50.6;39.7;
56360;PMS7003;42611;51.132;13.588;2023-11-22T08:30:02;52.2;39.8;
56360;PMS7003;42611;51.132;13.588;2023-11-22T08:35:01;51.4;40.7;
56360;PMS7003;42611;51.132;13.588;2023-11-22T08:41:03;51.0;40.3;
56360;PMS7003;42611;51.132;13.588;2023-11-22T08:46:15;50.2;40.4;
56360;PMS7003;42611;51.132;13.588;2023-11-22T08:51:03;46.0;38.6;
56360;PMS7003;42611;51.132;13.588;2023-11-22T08:56:01;45.4;38.3;
56360;PMS7003;42611;51.132;13.588;2023-11-22T09:01:01;46.7;38.2;
56360;PMS7003;42611;51.132;13.588;2023-11-22T09:06:01;44.9;38.0;
56360;PMS7003;42611;51.132;13.588;2023-11-22T09:11:02;44.8;37.6;
56360;PMS7003;42611;51.132;13.588;2023-11-22T09:16:01;47.3;38.9;
56360;PMS7003;42611;51.132;13.588;2023-11-22T09:21:01;46.4;38.3;
56360;PMS7003;42611;51.132;13.588;2023-11-22T09:26:02;47.6;38.9;
56360;PMS7003;42611;51.132;13.588;2023-11-22T09:31:01;48.2;38.6;
56360;PMS7003;42611;51.132;13.588;2023-11-22T09:36:02;46.6;38.0;
56360;PMS7003;42611;51.132;13.588;2023-11-22T09:41:01;46.0;37.8;
56360;PMS7003;42611;51.132;13.588;2023-11-22T09:46:03;46.7;37.8;
56360;PMS7003;42611;51.132;13.588;2023-11-22T09:51:03;44.0;36.5;
56360;PMS7003;42611;51.132;13.588;2023-11-22T09:56:02;43.5;36.4;
56360;PMS7003;42611;51.132;13.588;2023-11-22T10:01:02;43.1;36.1;
56360;PMS7003;42611;51.132;13.588;2023-11-22T10:06:01;45.1;36.6;
56360;PMS7003;42611;51.132;13.588;2023-11-22T10:11:02;49.8;40.4;
56360;PMS7003;42611;51.132;13.588;2023-11-22T10:16:09;53.2;43.0;
56360;PMS7003;42611;51.132;13.588;2023-11-22T10:21:01;52.3;42.8;
56360;PMS7003;42611;51.132;13.588;2023-11-22T10:26:01;52.2;42.8;
56360;PMS7003;42611;51.132;13.588;2023-11-22T10:31:07;54.2;44.8;
56360;PMS7003;42611;51.132;13.588;2023-11-22T10:36:01;51.1;42.9;
56360;PMS7003;42611;51.132;13.588;2023-11-22T10:41:05;48.3;41.2;
56360;PMS7003;42611;51.132;13.588;2023-11-22T10:46:03;54.1;44.5;
56360;PMS7003;42611;51.132;13.588;2023-11-22T10:51:03;53.0;43.4;
56360;PMS7003;42611;51.132;13.588;2023-11-22T10:56:11;49.4;40.4;
56360;PMS7003;42611;51.132;13.588;2023-11-22T11:01:01;43.7;36.6;
56360;PMS7003;42611;51.132;13.588;2023-11-22T11:06:02;42.0;34.8;
56360;PMS7003;42611;51.132;13.588;2023-11-22T11:11:01;33.6;29.6;
56360;PMS7003;42611;51.132;13.588;2023-11-22T11:16:01;32.8;29.0;
56360;PMS7003;42611;51.132;13.588;2023-11-22T11:21:06;30.4;27.2;
56360;PMS7003;42611;51.132;13.588;2023-11-22T11:26:09;30.7;27.2;
56360;PMS7003;42611;51.132;13.588;2023-11-22T11:31:01;29.1;24.5;
56360;PMS7003;42611;51.132;13.588;2023-11-22T11:41:16;28.1;22.9;
56360;PMS7003;42611;51.132;13.588;2023-11-22T11:46:01;26.7;21.8;
56360;PMS7003;42611;51.132;13.588;2023-11-22T11:51:02;25.8;20.0;
56360;PMS7003;42611;51.132;13.588;2023-11-22T11:56:01;26.3;21.4;
56360;PMS7003;42611;51.132;13.588;2023-11-22T12:01:02;23.8;19.9;
56360;PMS7003;42611;51.132;13.588;2023-11-22T12:11:03;23.6;19.8;
56360;PMS7003;42611;51.132;13.588;2023-11-22T12:16:01;23.2;20.1;
56360;PMS7003;42611;51.132;13.588;2023-11-22T12:26:01;24.1;19.7;
56360;PMS7003;42611;51.132;13.588;2023-11-22T12:31:09;25.2;20.0;
56360;PMS7003;42611;51.132;13.588;2023-11-22T12:36:03;25.4;20.7;
